sensor_id;sensor_type;location;lat;lon;timestamp;pressure;altitude;pressure_sealevel;temperature;humidity
74181;BME280;62544;50.826;14.354;2023-02-28T00:00:37;100454.24;;;-0.60;82.83
74181;BME280;62544;50.826;14.354;2023-02-28T00:04:53;100455.42;;;-0.62;82.68
74181;BME280;62544;50.826;14.354;2023-02-28T00:09:09;100456.50;;;-0.63;82.77
74181;BME280;62544;50.826;14.354;2023-02-28T00:13:25;100457.12;;;-0.64;82.70
74181;BME280;62544;50.826;14.354;2023-02-28T00:17:41;100458.94;;;-0.67;83.05
74181;BME280;62544;50.826;14.354;2023-02-28T00:21:57;100460.19;;;-0.71;83.61
74181;BME280;62544;50.826;14.354;2023-02-28T00:26:13;100459.45;;;-0.72;83.37
74181;BME280;62544;50.826;14.354;2023-02-28T00:30:29;100458.12;;;-0.73;83.09
74181;BME280;62544;50.826;14.354;2023-02-28T00:34:45;100456.17;;;-0.74;83.12
74181;BME280;62544;50.826;14.354;2023-02-28T00:39:01;100456.05;;;-0.76;83.32
74181;BME280;62544;50.826;14.354;2023-02-28T00:43:17;100456.36;;;-0.79;83.30
74181;BME280;62544;50.826;14.354;2023-02-28T00:47:33;100455.85;;;-0.83;83.41
74181;BME280;62544;50.826;14.354;2023-02-28T00:51:49;100456.30;;;-0.85;83.02
74181;BME280;62544;50.826;14.354;2023-02-28T00:56:05;100455.06;;;-0.90;83.47
74181;BME280;62544;50.826;14.354;2023-02-28T01:00:21;100455.16;;;-0.95;84.09
74181;BME280;62544;50.826;14.354;2023-02-28T01:04:37;100454.92;;;-1.05;86.45
74181;BME280;62544;50.826;14.354;2023-02-28T01:08:53;100454.69;;;-1.10;86.90
74181;BME280;62544;50.826;14.354;2023-02-28T01:13:09;100455.83;;;-1.12;86.61
74181;BME280;62544;50.826;14.354;2023-02-28T01:17:25;100455.74;;;-1.12;86.21
74181;BME280;62544;50.826;14.354;2023-02-28T01:21:41;100455.38;;;-1.09;85.49
74181;BME280;62544;50.826;14.354;2023-02-28T01:25:57;100453.69;;;-1.07;85.59
74181;BME280;62544;50.826;14.354;2023-02-28T01:30:13;100451.65;;;-1.05;85.05
74181;BME280;62544;50.826;14.354;2023-02-28T01:34:29;100449.47;;;-1.04;85.01
74181;BME280;62544;50.826;14.354;2023-02-28T01:38:46;100448.05;;;-1.06;85.11
74181;BME280;62544;50.826;14.354;2023-02-28T01:43:01;100446.81;;;-1.08;85.33
74181;BME280;62544;50.826;14.354;2023-02-28T01:47:17;100445.72;;;-1.12;85.79
74181;BME280;62544;50.826;14.354;2023-02-28T01:51:44;100444.78;;;-1.15;85.19
74181;BME280;62544;50.826;14.354;2023-02-28T01:55:50;100444.03;;;-1.19;85.03
74181;BME280;62544;50.826;14.354;2023-02-28T02:00:10;100442.25;;;-1.23;84.61
74181;BME280;62544;50.826;14.354;2023-02-28T02:04:22;100440.64;;;-1.28;84.58
74181;BME280;62544;50.826;14.354;2023-02-28T02:08:37;100439.26;;;-1.36;84.15
74181;BME280;62544;50.826;14.354;2023-02-28T02:21:34;100436.30;;;-1.70;84.14
74181;BME280;62544;50.826;14.354;2023-02-28T02:25:50;100434.91;;;-1.84;85.25
74181;BME280;62544;50.826;14.354;2023-02-28T02:38:37;100434.16;;;-2.29;84.55
74181;BME280;62544;50.826;14.354;2023-02-28T02:42:55;100435.00;;;-2.45;84.69
74181;BME280;62544;50.826;14.354;2023-02-28T02:47:03;100435.68;;;-2.62;85.51
74181;BME280;62544;50.826;14.354;2023-02-28T02:51:18;100435.66;;;-2.77;85.54
74181;BME280;62544;50.826;14.354;2023-02-28T02:55:34;100435.24;;;-2.93;85.77
74181;BME280;62544;50.826;14.354;2023-02-28T02:59:49;100435.39;;;-3.07;84.95
74181;BME280;62544;50.826;14.354;2023-02-28T03:04:09;100435.24;;;-3.23;84.48
74181;BME280;62544;50.826;14.354;2023-02-28T03:08:21;100435.72;;;-3.39;84.52
74181;BME280;62544;50.826;14.354;2023-02-28T03:12:41;100437.55;;;-3.54;85.02
74181;BME280;62544;50.826;14.354;2023-02-28T03:25:37;100440.00;;;-3.98;85.83
74181;BME280;62544;50.826;14.354;2023-02-28T03:29:46;100440.27;;;-4.12;85.89
74181;BME280;62544;50.826;14.354;2023-02-28T03:38:16;100440.97;;;-4.35;84.37
74181;BME280;62544;50.826;14.354;2023-02-28T03:42:30;100441.58;;;-4.48;84.57
74181;BME280;62544;50.826;14.354;2023-02-28T03:46:47;100442.77;;;-4.60;85.36
74181;BME280;62544;50.826;14.354;2023-02-28T03:51:01;100443.11;;;-4.70;84.99
74181;BME280;62544;50.826;14.354;2023-02-28T03:55:17;100443.58;;;-4.80;85.16
74181;BME280;62544;50.826;14.354;2023-02-28T03:59:37;100443.99;;;-4.88;84.52
74181;BME280;62544;50.826;14.354;2023-02-28T04:03:49;100445.95;;;-4.96;87.25
74181;BME280;62544;50.826;14.354;2023-02-28T04:08:06;100447.18;;;-5.02;85.41
74181;BME280;62544;50.826;14.354;2023-02-28T04:12:21;100448.43;;;-5.08;84.16
74181;BME280;62544;50.826;14.354;2023-02-28T04:16:39;100449.58;;;-5.17;84.56
74181;BME280;62544;50.826;14.354;2023-02-28T04:20:53;100451.17;;;-5.27;83.99
74181;BME280;62544;50.826;14.354;2023-02-28T04:25:09;100454.22;;;-5.36;84.17
74181;BME280;62544;50.826;14.354;2023-02-28T04:29:29;100457.31;;;-5.45;84.10
74181;BME280;62544;50.826;14.354;2023-02-28T04:33:41;100460.23;;;-5.55;84.75
74181;BME280;62544;50.826;14.354;2023-02-28T04:37:57;100462.84;;;-5.63;84.35
74181;BME280;62544;50.826;14.354;2023-02-28T04:42:13;100464.40;;;-5.70;85.16
74181;BME280;62544;50.826;14.354;2023-02-28T04:46:29;100466.61;;;-5.78;84.78
74181;BME280;62544;50.826;14.354;2023-02-28T04:50:46;100469.11;;;-5.85;86.76
74181;BME280;62544;50.826;14.354;2023-02-28T04:55:02;100472.97;;;-5.88;85.37
74181;BME280;62544;50.826;14.354;2023-02-28T04:59:18;100476.28;;;-5.92;84.45
74181;BME280;62544;50.826;14.354;2023-02-28T05:03:34;100479.61;;;-5.97;84.74
74181;BME280;62544;50.826;14.354;2023-02-28T05:07:50;100482.67;;;-6.03;84.85
74181;BME280;62544;50.826;14.354;2023-02-28T05:12:06;100484.48;;;-6.07;84.56
74181;BME280;62544;50.826;14.354;2023-02-28T05:16:22;100487.41;;;-6.12;84.82
74181;BME280;62544;50.826;14.354;2023-02-28T05:20:38;100488.71;;;-6.16;84.68
74181;BME280;62544;50.826;14.354;2023-02-28T05:24:54;100490.25;;;-6.20;86.38
74181;BME280;62544;50.826;14.354;2023-02-28T05:29:10;100492.55;;;-6.22;85.74
74181;BME280;62544;50.826;14.354;2023-02-28T05:33:26;100494.58;;;-6.24;85.27
74181;BME280;62544;50.826;14.354;2023-02-28T05:37:42;100497.48;;;-6.28;87.07
74181;BME280;62544;50.826;14.354;2023-02-28T05:41:58;100500.31;;;-6.30;86.01
74181;BME280;62544;50.826;14.354;2023-02-28T05:46:14;100502.39;;;-6.33;86.26
74181;BME280;62544;50.826;14.354;2023-02-28T05:50:30;100504.49;;;-6.35;85.46
74181;BME280;62544;50.826;14.354;2023-02-28T05:54:46;100505.95;;;-6.39;84.80
74181;BME280;62544;50.826;14.354;2023-02-28T05:59:02;100507.81;;;-6.43;84.60
74181;BME280;62544;50.826;14.354;2023-02-28T06:03:18;100509.85;;;-6.48;85.08
74181;BME280;62544;50.826;14.354;2023-02-28T06:07:34;100512.62;;;-6.53;84.52
74181;BME280;62544;50.826;14.354;2023-02-28T06:11:50;100516.35;;;-6.57;84.44
74181;BME280;62544;50.826;14.354;2023-02-28T06:16:07;100520.14;;;-6.60;84.39
74181;BME280;62544;50.826;14.354;2023-02-28T06:20:23;100523.69;;;-6.60;84.53
74181;BME280;62544;50.826;14.354;2023-02-28T06:24:38;100527.69;;;-6.59;84.15
74181;BME280;62544;50.826;14.354;2023-02-28T06:28:54;100530.28;;;-6.56;84.16
74181;BME280;62544;50.826;14.354;2023-02-28T06:33:10;100534.66;;;-6.52;83.89
74181;BME280;62544;50.826;14.354;2023-02-28T06:37:27;100537.39;;;-6.48;84.83
74181;BME280;62544;50.826;14.354;2023-02-28T06:41:43;100539.98;;;-6.40;84.28
74181;BME280;62544;50.826;14.354;2023-02-28T06:45:59;100542.55;;;-6.30;84.60
74181;BME280;62544;50.826;14.354;2023-02-28T06:50:14;100545.28;;;-6.18;84.43
74181;BME280;62544;50.826;14.354;2023-02-28T06:54:31;100549.39;;;-6.06;84.17
74181;BME280;62544;50.826;14.354;2023-02-28T06:58:47;100552.61;;;-5.92;84.58
74181;BME280;62544;50.826;14.354;2023-02-28T07:03:02;100555.92;;;-5.78;84.53
74181;BME280;62544;50.826;14.354;2023-02-28T07:07:18;100558.40;;;-5.64;84.60
74181;BME280;62544;50.826;14.354;2023-02-28T07:11:34;100560.55;;;-5.49;84.55
74181;BME280;62544;50.826;14.354;2023-02-28T07:15:57;100562.32;;;-5.34;84.25
74181;BME280;62544;50.826;14.354;2023-02-28T07:20:07;100564.22;;;-5.13;86.48
74181;BME280;62544;50.826;14.354;2023-02-28T07:24:22;100566.24;;;-4.80;91.10
74181;BME280;62544;50.826;14.354;2023-02-28T07:28:38;100568.05;;;-4.35;92.50
74181;BME280;62544;50.826;14.354;2023-02-28T07:32:54;100568.77;;;-3.81;91.28
74181;BME280;62544;50.826;14.354;2023-02-28T07:37:10;100569.20;;;-3.26;88.52
74181;BME280;62544;50.826;14.354;2023-02-28T07:41:26;100568.69;;;-2.71;84.32
74181;BME280;62544;50.826;14.354;2023-02-28T07:45:42;100569.02;;;-2.17;82.97
74181;BME280;62544;50.826;14.354;2023-02-28T07:49:58;100568.30;;;-1.63;80.42
74181;BME280;62544;50.826;14.354;2023-02-28T07:54:14;100567.85;;;-1.13;77.08
74181;BME280;62544;50.826;14.354;2023-02-28T07:58:30;100567.60;;;-0.66;75.52
74181;BME280;62544;50.826;14.354;2023-02-28T08:02:46;100567.75;;;-0.21;75.55
74181;BME280;62544;50.826;14.354;2023-02-28T08:07:02;100567.50;;;0.22;75.00
74181;BME280;62544;50.826;14.354;2023-02-28T08:11:18;100567.14;;;0.63;72.26
74181;BME280;62544;50.826;14.354;2023-02-28T08:15:35;100565.95;;;1.04;70.62
74181;BME280;62544;50.826;14.354;2023-02-28T08:19:50;100565.00;;;1.45;68.16
74181;BME280;62544;50.826;14.354;2023-02-28T08:24:06;100563.56;;;1.83;65.52
74181;BME280;62544;50.826;14.354;2023-02-28T08:28:22;100561.30;;;2.14;63.98
74181;BME280;62544;50.826;14.354;2023-02-28T08:32:38;100559.60;;;2.38;63.57
74181;BME280;62544;50.826;14.354;2023-02-28T08:36:54;100556.98;;;2.47;59.91
74181;BME280;62544;50.826;14.354;2023-02-28T08:41:11;100556.80;;;2.22;62.10
74181;BME280;62544;50.826;14.354;2023-02-28T08:45:26;100556.67;;;2.05;59.62
74181;BME280;62544;50.826;14.354;2023-02-28T08:49:42;100557.95;;;1.83;63.77
74181;BME280;62544;50.826;14.354;2023-02-28T08:53:59;100558.80;;;1.72;59.39
74181;BME280;62544;50.826;14.354;2023-02-28T08:58:14;100559.27;;;1.61;59.86
74181;BME280;62544;50.826;14.354;2023-02-28T09:02:31;100558.04;;;1.47;59.96
74181;BME280;62544;50.826;14.354;2023-02-28T09:06:46;100557.44;;;1.36;59.48
74181;BME280;62544;50.826;14.354;2023-02-28T09:11:02;100556.62;;;1.25;59.25
74181;BME280;62544;50.826;14.354;2023-02-28T09:15:18;100556.18;;;1.12;59.41
74181;BME280;62544;50.826;14.354;2023-02-28T09:19:34;100556.67;;;1.14;59.24
74181;BME280;62544;50.826;14.354;2023-02-28T09:23:50;100555.13;;;1.13;57.46
74181;BME280;62544;50.826;14.354;2023-02-28T09:28:06;100554.53;;;1.12;58.32
74181;BME280;62544;50.826;14.354;2023-02-28T09:32:22;100553.27;;;1.16;57.00
74181;BME280;62544;50.826;14.354;2023-02-28T09:36:38;100554.81;;;1.22;55.56
74181;BME280;62544;50.826;14.354;2023-02-28T09:41:14;100555.98;;;1.35;55.01
74181;BME280;62544;50.826;14.354;2023-02-28T09:45:22;100553.86;;;1.28;56.25
74181;BME280;62544;50.826;14.354;2023-02-28T09:49:37;100553.60;;;1.30;57.20
74181;BME280;62544;50.826;14.354;2023-02-28T09:53:42;100552.77;;;1.39;57.85
74181;BME280;62544;50.826;14.354;2023-02-28T09:57:58;100553.11;;;1.44;55.51
74181;BME280;62544;50.826;14.354;2023-02-28T10:06:33;100551.56;;;1.68;53.64
74181;BME280;62544;50.826;14.354;2023-02-28T10:10:56;100552.34;;;1.80;53.76
74181;BME280;62544;50.826;14.354;2023-02-28T10:15:02;100551.26;;;2.00;51.91
74181;BME280;62544;50.826;14.354;2023-02-28T10:23:34;100547.83;;;2.23;53.58
74181;BME280;62544;50.826;14.354;2023-02-28T10:27:53;100545.64;;;2.27;53.35
74181;BME280;62544;50.826;14.354;2023-02-28T10:32:06;100544.92;;;2.38;54.06
74181;BME280;62544;50.826;14.354;2023-02-28T10:36:22;100543.43;;;2.52;51.39
74181;BME280;62544;50.826;14.354;2023-02-28T10:40:38;100540.42;;;2.77;52.02
74181;BME280;62544;50.826;14.354;2023-02-28T10:49:15;100532.87;;;3.22;50.75
74181;BME280;62544;50.826;14.354;2023-02-28T10:53:37;100530.64;;;3.24;50.69
74181;BME280;62544;50.826;14.354;2023-02-28T10:57:42;100528.33;;;3.43;49.19
74181;BME280;62544;50.826;14.354;2023-02-28T11:01:58;100526.25;;;3.78;45.62
74181;BME280;62544;50.826;14.354;2023-02-28T11:10:31;100523.50;;;3.63;50.35
74181;BME280;62544;50.826;14.354;2023-02-28T11:14:47;100521.91;;;3.55;49.31
74181;BME280;62544;50.826;14.354;2023-02-28T11:19:03;100519.28;;;3.72;46.21
74181;BME280;62544;50.826;14.354;2023-02-28T11:23:19;100516.69;;;4.04;44.41
74181;BME280;62544;50.826;14.354;2023-02-28T11:27:45;100513.67;;;4.46;45.90
74181;BME280;62544;50.826;14.354;2023-02-28T11:36:14;100504.80;;;4.65;43.77
74181;BME280;62544;50.826;14.354;2023-02-28T11:44:43;100494.53;;;5.60;41.13
74181;BME280;62544;50.826;14.354;2023-02-28T11:57:44;100480.97;;;6.64;40.96
74181;BME280;62544;50.826;14.354;2023-02-28T12:01:48;100479.10;;;7.19;37.63
74181;BME280;62544;50.826;14.354;2023-02-28T12:06:02;100476.79;;;7.96;35.33
74181;BME280;62544;50.826;14.354;2023-02-28T12:10:24;100472.69;;;8.53;34.08
74181;BME280;62544;50.826;14.354;2023-02-28T12:18:56;100469.53;;;8.54;39.31
74181;BME280;62544;50.826;14.354;2023-02-28T12:27:20;100467.58;;;8.44;40.79
74181;BME280;62544;50.826;14.354;2023-02-28T12:31:36;100465.23;;;8.43;37.01
74181;BME280;62544;50.826;14.354;2023-02-28T12:35:55;100464.03;;;8.33;37.95
74181;BME280;62544;50.826;14.354;2023-02-28T12:40:11;100462.53;;;8.08;40.29
74181;BME280;62544;50.826;14.354;2023-02-28T12:44:27;100461.33;;;7.86;40.16
74181;BME280;62544;50.826;14.354;2023-02-28T12:48:43;100458.89;;;7.83;38.75
74181;BME280;62544;50.826;14.354;2023-02-28T13:01:39;100451.20;;;8.22;36.01
74181;BME280;62544;50.826;14.354;2023-02-28T13:05:50;100448.03;;;8.64;34.61
74181;BME280;62544;50.826;14.354;2023-02-28T13:09:59;100445.58;;;9.00;34.45
74181;BME280;62544;50.826;14.354;2023-02-28T13:14:28;100443.44;;;9.19;35.27
74181;BME280;62544;50.826;14.354;2023-02-28T13:18:35;100439.79;;;9.29;37.08
74181;BME280;62544;50.826;14.354;2023-02-28T13:22:50;100437.47;;;9.13;38.98
74181;BME280;62544;50.826;14.354;2023-02-28T13:31:19;100433.73;;;8.71;40.64
74181;BME280;62544;50.826;14.354;2023-02-28T13:35:36;100432.22;;;8.93;36.35
74181;BME280;62544;50.826;14.354;2023-02-28T13:44:11;100430.21;;;8.89;40.02
74181;BME280;62544;50.826;14.354;2023-02-28T13:48:24;100428.14;;;8.62;40.38
74181;BME280;62544;50.826;14.354;2023-02-28T13:52:44;100425.16;;;8.30;40.84
74181;BME280;62544;50.826;14.354;2023-02-28T13:57:05;100423.46;;;8.05;41.71
74181;BME280;62544;50.826;14.354;2023-02-28T14:05:27;100421.15;;;7.36;40.64
74181;BME280;62544;50.826;14.354;2023-02-28T14:09:45;100418.38;;;7.42;40.42
74181;BME280;62544;50.826;14.354;2023-02-28T14:13:59;100416.83;;;7.43;39.24
74181;BME280;62544;50.826;14.354;2023-02-28T14:18:31;100414.39;;;7.70;37.81
74181;BME280;62544;50.826;14.354;2023-02-28T14:22:41;100413.19;;;8.02;38.13
74181;BME280;62544;50.826;14.354;2023-02-28T14:26:56;100413.44;;;8.16;38.49
74181;BME280;62544;50.826;14.354;2023-02-28T14:31:13;100413.81;;;7.94;39.77
74181;BME280;62544;50.826;14.354;2023-02-28T14:35:29;100412.42;;;7.97;38.44
74181;BME280;62544;50.826;14.354;2023-02-28T14:39:35;100411.08;;;8.30;36.28
74181;BME280;62544;50.826;14.354;2023-02-28T14:43:55;100409.12;;;8.44;36.67
74181;BME280;62544;50.826;14.354;2023-02-28T14:48:09;100409.01;;;8.27;39.69
74181;BME280;62544;50.826;14.354;2023-02-28T14:52:24;100408.29;;;7.75;42.59
74181;BME280;62544;50.826;14.354;2023-02-28T14:56:39;100407.01;;;7.44;40.21
74181;BME280;62544;50.826;14.354;2023-02-28T15:00:56;100404.75;;;7.29;41.55
74181;BME280;62544;50.826;14.354;2023-02-28T15:09:27;100403.22;;;6.97;41.64
74181;BME280;62544;50.826;14.354;2023-02-28T15:13:44;100402.18;;;6.92;41.25
74181;BME280;62544;50.826;14.354;2023-02-28T15:17:59;100402.27;;;6.50;45.48
74181;BME280;62544;50.826;14.354;2023-02-28T15:22:16;100402.47;;;5.90;48.85
74181;BME280;62544;50.826;14.354;2023-02-28T15:26:37;100403.02;;;5.28;49.66
74181;BME280;62544;50.826;14.354;2023-02-28T15:31:17;100404.49;;;4.75;52.26
74181;BME280;62544;50.826;14.354;2023-02-28T15:39:23;100404.61;;;4.12;51.24
74181;BME280;62544;50.826;14.354;2023-02-28T15:43:36;100405.00;;;3.91;51.71
74181;BME280;62544;50.826;14.354;2023-02-28T15:47:51;100406.56;;;3.76;51.33
74181;BME280;62544;50.826;14.354;2023-02-28T15:52:09;100404.64;;;3.72;51.43
74181;BME280;62544;50.826;14.354;2023-02-28T15:56:24;100404.21;;;3.67;54.06
74181;BME280;62544;50.826;14.354;2023-02-28T16:00:39;100404.63;;;3.57;53.35
74181;BME280;62544;50.826;14.354;2023-02-28T16:04:56;100405.83;;;3.35;56.06
74181;BME280;62544;50.826;14.354;2023-02-28T16:09:12;100406.52;;;3.19;58.14
74181;BME280;62544;50.826;14.354;2023-02-28T16:13:27;100406.95;;;3.10;56.98
74181;BME280;62544;50.826;14.354;2023-02-28T16:17:43;100407.83;;;3.04;57.58
74181;BME280;62544;50.826;14.354;2023-02-28T16:21:59;100408.42;;;2.97;59.44
74181;BME280;62544;50.826;14.354;2023-02-28T16:26:20;100409.55;;;2.89;60.40
74181;BME280;62544;50.826;14.354;2023-02-28T16:30:31;100411.17;;;2.80;61.38
74181;BME280;62544;50.826;14.354;2023-02-28T16:34:47;100412.69;;;2.67;62.75
74181;BME280;62544;50.826;14.354;2023-02-28T16:39:03;100414.72;;;2.50;63.76
74181;BME280;62544;50.826;14.354;2023-02-28T16:43:20;100417.46;;;2.32;64.97
74181;BME280;62544;50.826;14.354;2023-02-28T16:47:35;100419.98;;;2.11;66.49
74181;BME280;62544;50.826;14.354;2023-02-28T16:51:51;100423.89;;;1.90;67.06
74181;BME280;62544;50.826;14.354;2023-02-28T16:56:14;100427.55;;;1.68;68.83
74181;BME280;62544;50.826;14.354;2023-02-28T17:00:24;100431.56;;;1.48;69.17
74181;BME280;62544;50.826;14.354;2023-02-28T17:04:39;100434.75;;;1.28;70.25
74181;BME280;62544;50.826;14.354;2023-02-28T17:08:56;100438.08;;;1.07;70.63
74181;BME280;62544;50.826;14.354;2023-02-28T17:13:11;100440.77;;;0.85;71.28
74181;BME280;62544;50.826;14.354;2023-02-28T17:17:27;100443.61;;;0.64;71.48
74181;BME280;62544;50.826;14.354;2023-02-28T17:21:43;100445.48;;;0.43;73.24
74181;BME280;62544;50.826;14.354;2023-02-28T17:25:59;100447.02;;;0.23;74.91
74181;BME280;62544;50.826;14.354;2023-02-28T17:30:16;100448.38;;;0.07;74.00
74181;BME280;62544;50.826;14.354;2023-02-28T17:34:31;100449.56;;;-0.10;74.31
74181;BME280;62544;50.826;14.354;2023-02-28T17:38:47;100450.55;;;-0.26;75.29
74181;BME280;62544;50.826;14.354;2023-02-28T17:43:03;100450.31;;;-0.40;75.04
74181;BME280;62544;50.826;14.354;2023-02-28T17:47:19;100450.34;;;-0.54;75.63
74181;BME280;62544;50.826;14.354;2023-02-28T17:51:35;100450.94;;;-0.67;76.36
74181;BME280;62544;50.826;14.354;2023-02-28T17:55:51;100450.02;;;-0.79;77.12
74181;BME280;62544;50.826;14.354;2023-02-28T18:00:08;100449.91;;;-0.88;77.66
74181;BME280;62544;50.826;14.354;2023-02-28T18:04:23;100447.75;;;-0.97;76.70
74181;BME280;62544;50.826;14.354;2023-02-28T18:08:39;100446.92;;;-1.05;77.23
74181;BME280;62544;50.826;14.354;2023-02-28T18:12:55;100445.03;;;-1.15;77.02
74181;BME280;62544;50.826;14.354;2023-02-28T18:17:15;100443.38;;;-1.27;77.00
74181;BME280;62544;50.826;14.354;2023-02-28T18:21:27;100442.50;;;-1.38;76.85
74181;BME280;62544;50.826;14.354;2023-02-28T18:25:43;100441.96;;;-1.52;76.99
74181;BME280;62544;50.826;14.354;2023-02-28T18:29:59;100442.63;;;-1.66;78.49
74181;BME280;62544;50.826;14.354;2023-02-28T18:34:15;100443.27;;;-1.78;78.38
74181;BME280;62544;50.826;14.354;2023-02-28T18:38:31;100444.37;;;-1.89;78.33
74181;BME280;62544;50.826;14.354;2023-02-28T18:42:47;100444.33;;;-2.00;79.03
74181;BME280;62544;50.826;14.354;2023-02-28T18:47:03;100444.28;;;-2.10;79.75
74181;BME280;62544;50.826;14.354;2023-02-28T18:51:21;100444.33;;;-2.18;80.46
74181;BME280;62544;50.826;14.354;2023-02-28T18:55:35;100444.64;;;-2.25;80.57
74181;BME280;62544;50.826;14.354;2023-02-28T18:59:51;100444.14;;;-2.31;81.20
74181;BME280;62544;50.826;14.354;2023-02-28T19:04:09;100445.46;;;-2.36;80.70
74181;BME280;62544;50.826;14.354;2023-02-28T19:08:23;100446.11;;;-2.41;81.14
74181;BME280;62544;50.826;14.354;2023-02-28T19:12:39;100447.63;;;-2.47;80.89
74181;BME280;62544;50.826;14.354;2023-02-28T19:16:55;100449.52;;;-2.53;80.38
74181;BME280;62544;50.826;14.354;2023-02-28T19:21:12;100449.71;;;-2.62;81.21
74181;BME280;62544;50.826;14.354;2023-02-28T19:25:27;100450.59;;;-2.72;80.81
74181;BME280;62544;50.826;14.354;2023-02-28T19:29:43;100452.17;;;-2.79;80.46
74181;BME280;62544;50.826;14.354;2023-02-28T19:33:59;100454.19;;;-2.89;81.63
74181;BME280;62544;50.826;14.354;2023-02-28T19:38:15;100456.31;;;-2.99;83.46
74181;BME280;62544;50.826;14.354;2023-02-28T19:42:31;100458.81;;;-3.04;85.38
74181;BME280;62544;50.826;14.354;2023-02-28T19:46:47;100461.27;;;-3.07;84.17
74181;BME280;62544;50.826;14.354;2023-02-28T19:51:04;100463.13;;;-3.09;82.03
74181;BME280;62544;50.826;14.354;2023-02-28T19:55:19;100465.13;;;-3.16;82.35
74181;BME280;62544;50.826;14.354;2023-02-28T19:59:35;100465.85;;;-3.22;82.50
74181;BME280;62544;50.826;14.354;2023-02-28T20:03:51;100465.44;;;-3.31;84.69
74181;BME280;62544;50.826;14.354;2023-02-28T20:08:07;100465.95;;;-3.38;83.70
74181;BME280;62544;50.826;14.354;2023-02-28T20:12:23;100467.08;;;-3.42;82.79
74181;BME280;62544;50.826;14.354;2023-02-28T20:16:39;100466.29;;;-3.50;83.90
74181;BME280;62544;50.826;14.354;2023-02-28T20:20:55;100466.08;;;-3.56;84.41
74181;BME280;62544;50.826;14.354;2023-02-28T20:25:11;100464.21;;;-3.65;85.99
74181;BME280;62544;50.826;14.354;2023-02-28T20:29:27;100463.71;;;-3.68;84.56
74181;BME280;62544;50.826;14.354;2023-02-28T20:33:43;100461.94;;;-3.73;84.40
74181;BME280;62544;50.826;14.354;2023-02-28T20:37:59;100460.92;;;-3.78;86.21
74181;BME280;62544;50.826;14.354;2023-02-28T20:42:15;100459.51;;;-3.81;85.24
74181;BME280;62544;50.826;14.354;2023-02-28T20:46:31;100458.77;;;-3.85;84.28
74181;BME280;62544;50.826;14.354;2023-02-28T20:50:50;100459.94;;;-3.87;83.56
74181;BME280;62544;50.826;14.354;2023-02-28T20:55:03;100461.13;;;-3.92;83.23
74181;BME280;62544;50.826;14.354;2023-02-28T20:59:19;100462.80;;;-4.02;84.65
74181;BME280;62544;50.826;14.354;2023-02-28T21:03:35;100465.55;;;-4.10;84.24
74181;BME280;62544;50.826;14.354;2023-02-28T21:07:51;100467.63;;;-4.18;83.96
74181;BME280;62544;50.826;14.354;2023-02-28T21:12:07;100470.71;;;-4.25;84.42
74181;BME280;62544;50.826;14.354;2023-02-28T21:16:24;100473.44;;;-4.31;84.13
74181;BME280;62544;50.826;14.354;2023-02-28T21:20:39;100475.16;;;-4.38;85.30
74181;BME280;62544;50.826;14.354;2023-02-28T21:24:55;100477.80;;;-4.43;83.67
74181;BME280;62544;50.826;14.354;2023-02-28T21:29:11;100478.19;;;-4.49;85.34
74181;BME280;62544;50.826;14.354;2023-02-28T21:33:27;100478.30;;;-4.55;86.34
74181;BME280;62544;50.826;14.354;2023-02-28T21:37:43;100478.25;;;-4.57;84.87
74181;BME280;62544;50.826;14.354;2023-02-28T21:41:59;100478.17;;;-4.58;84.30
74181;BME280;62544;50.826;14.354;2023-02-28T21:46:16;100478.89;;;-4.61;83.82
74181;BME280;62544;50.826;14.354;2023-02-28T21:50:31;100480.61;;;-4.68;84.78
74181;BME280;62544;50.826;14.354;2023-02-28T21:54:47;100482.64;;;-4.74;85.35
74181;BME280;62544;50.826;14.354;2023-02-28T21:59:03;100484.99;;;-4.77;85.26
74181;BME280;62544;50.826;14.354;2023-02-28T22:03:19;100486.00;;;-4.79;84.88
74181;BME280;62544;50.826;14.354;2023-02-28T22:07:35;100486.32;;;-4.82;86.06
74181;BME280;62544;50.826;14.354;2023-02-28T22:11:51;100486.80;;;-4.83;85.07
74181;BME280;62544;50.826;14.354;2023-02-28T22:16:14;100487.39;;;-4.86;84.54
74181;BME280;62544;50.826;14.354;2023-02-28T22:20:23;100488.40;;;-4.89;84.66
74181;BME280;62544;50.826;14.354;2023-02-28T22:24:39;100490.23;;;-4.95;85.94
74181;BME280;62544;50.826;14.354;2023-02-28T22:28:55;100491.61;;;-4.98;85.00
74181;BME280;62544;50.826;14.354;2023-02-28T22:33:11;100494.68;;;-5.01;85.07
74181;BME280;62544;50.826;14.354;2023-02-28T22:37:27;100495.26;;;-5.05;85.97
74181;BME280;62544;50.826;14.354;2023-02-28T22:41:43;100494.87;;;-5.09;85.41
74181;BME280;62544;50.826;14.354;2023-02-28T22:46:02;100494.31;;;-5.13;84.44
74181;BME280;62544;50.826;14.354;2023-02-28T22:50:15;100493.08;;;-5.19;84.08
74181;BME280;62544;50.826;14.354;2023-02-28T22:54:31;100492.49;;;-5.26;83.87
74181;BME280;62544;50.826;14.354;2023-02-28T22:58:48;100492.10;;;-5.34;83.74
74181;BME280;62544;50.826;14.354;2023-02-28T23:03:03;100491.75;;;-5.42;84.54
74181;BME280;62544;50.826;14.354;2023-02-28T23:07:19;100490.30;;;-5.48;84.25
74181;BME280;62544;50.826;14.354;2023-02-28T23:11:37;100491.60;;;-5.50;86.37
74181;BME280;62544;50.826;14.354;2023-02-28T23:15:51;100492.07;;;-5.52;85.64
74181;BME280;62544;50.826;14.354;2023-02-28T23:20:07;100492.36;;;-5.52;84.61
74181;BME280;62544;50.826;14.354;2023-02-28T23:24:23;100493.79;;;-5.54;84.26
74181;BME280;62544;50.826;14.354;2023-02-28T23:28:39;100495.25;;;-5.56;86.67
74181;BME280;62544;50.826;14.354;2023-02-28T23:32:55;100495.95;;;-5.60;86.27
74181;BME280;62544;50.826;14.354;2023-02-28T23:37:11;100495.51;;;-5.60;84.70
74181;BME280;62544;50.826;14.354;2023-02-28T23:41:27;100495.29;;;-5.63;84.24
74181;BME280;62544;50.826;14.354;2023-02-28T23:45:43;100494.31;;;-5.68;86.12